sensor_id;sensor_type;location;lat;lon;timestamp;pressure;altitude;pressure_sealevel;temperature;humidity
21821;BME280;11073;48.586;12.066;2022-10-16T00:01:49;96481.38;;;16.41;72.42
21821;BME280;11073;48.586;12.066;2022-10-16T00:04:17;96474.03;;;16.31;72.56
21821;BME280;11073;48.586;12.066;2022-10-16T00:06:46;96476.47;;;16.27;72.64
21821;BME280;11073;48.586;12.066;2022-10-16T00:09:16;96479.47;;;16.26;72.61
21821;BME280;11073;48.586;12.066;2022-10-16T00:11:44;96480.84;;;16.23;72.77
21821;BME280;11073;48.586;12.066;2022-10-16T00:14:14;96492.31;;;16.20;72.85
21821;BME280;11073;48.586;12.066;2022-10-16T00:16:44;96494.78;;;16.17;72.78
21821;BME280;11073;48.586;12.066;2022-10-16T00:19:14;96496.69;;;16.16;72.86
21821;BME280;11073;48.586;12.066;2022-10-16T00:21:43;96499.69;;;16.10;72.82
21821;BME280;11073;48.586;12.066;2022-10-16T00:24:12;96500.78;;;16.09;73.05
21821;BME280;11073;48.586;12.066;2022-10-16T00:26:41;96513.34;;;16.10;73.06
21821;BME280;11073;48.586;12.066;2022-10-16T00:29:10;96510.34;;;16.01;73.28
21821;BME280;11073;48.586;12.066;2022-10-16T00:31:38;96515.22;;;15.99;73.00
21821;BME280;11073;48.586;12.066;2022-10-16T00:34:07;96503.50;;;15.88;73.28
21821;BME280;11073;48.586;12.066;2022-10-16T00:36:38;96511.13;;;15.96;73.38
21821;BME280;11073;48.586;12.066;2022-10-16T00:39:06;96508.97;;;15.93;73.57
21821;BME280;11073;48.586;12.066;2022-10-16T00:41:35;96507.28;;;15.92;73.49
21821;BME280;11073;48.586;12.066;2022-10-16T00:44:47;96506.47;;;15.92;73.42
21821;BME280;11073;48.586;12.066;2022-10-16T00:47:21;96515.22;;;15.89;73.48
21821;BME280;11073;48.586;12.066;2022-10-16T00:49:53;96506.22;;;15.88;73.56
21821;BME280;11073;48.586;12.066;2022-10-16T00:52:25;96513.31;;;15.89;73.76
21821;BME280;11073;48.586;12.066;2022-10-16T00:54:55;96509.47;;;15.90;73.67
21821;BME280;11073;48.586;12.066;2022-10-16T00:57:25;96514.41;;;15.88;73.59
21821;BME280;11073;48.586;12.066;2022-10-16T00:59:54;96513.03;;;15.81;73.73
21821;BME280;11073;48.586;12.066;2022-10-16T01:02:23;96504.53;;;15.77;73.77
21821;BME280;11073;48.586;12.066;2022-10-16T01:04:53;96505.09;;;15.74;73.95
21821;BME280;11073;48.586;12.066;2022-10-16T01:07:34;96500.72;;;15.73;73.74
21821;BME280;11073;48.586;12.066;2022-10-16T01:10:15;96504.28;;;15.74;73.98
21821;BME280;11073;48.586;12.066;2022-10-16T01:12:49;96503.47;;;15.73;73.98
21821;BME280;11073;48.586;12.066;2022-10-16T01:15:25;96498.53;;;15.75;73.96
21821;BME280;11073;48.586;12.066;2022-10-16T01:18:00;96493.63;;;15.67;73.82
21821;BME280;11073;48.586;12.066;2022-10-16T01:20:34;96499.59;;;15.64;73.93
21821;BME280;11073;48.586;12.066;2022-10-16T01:23:18;96499.56;;;15.59;74.00
21821;BME280;11073;48.586;12.066;2022-10-16T01:26:06;96505.84;;;15.59;74.11
21821;BME280;11073;48.586;12.066;2022-10-16T01:28:43;96517.03;;;15.58;74.25
21821;BME280;11073;48.586;12.066;2022-10-16T01:31:15;96521.38;;;15.54;74.14
21821;BME280;11073;48.586;12.066;2022-10-16T01:33:50;96516.47;;;15.51;74.06
21821;BME280;11073;48.586;12.066;2022-10-16T01:36:25;96518.63;;;15.49;74.13
21821;BME280;11073;48.586;12.066;2022-10-16T01:39:00;96509.34;;;15.50;74.33
21821;BME280;11073;48.586;12.066;2022-10-16T01:41:32;96507.72;;;15.49;74.05
21821;BME280;11073;48.586;12.066;2022-10-16T01:44:05;96506.91;;;15.43;74.13
21821;BME280;11073;48.586;12.066;2022-10-16T01:46:39;96510.69;;;15.37;74.11
21821;BME280;11073;48.586;12.066;2022-10-16T01:49:10;96516.66;;;15.29;74.20
21821;BME280;11073;48.586;12.066;2022-10-16T01:51:41;96523.47;;;15.31;74.47
21821;BME280;11073;48.586;12.066;2022-10-16T01:54:14;96532.19;;;15.33;74.43
21821;BME280;11073;48.586;12.066;2022-10-16T01:56:45;96530.31;;;15.39;74.57
21821;BME280;11073;48.586;12.066;2022-10-16T01:59:18;96530.59;;;15.37;74.51
21821;BME280;11073;48.586;12.066;2022-10-16T02:01:52;96544.78;;;15.39;74.53
21821;BME280;11073;48.586;12.066;2022-10-16T02:04:25;96539.06;;;15.41;74.60
21821;BME280;11073;48.586;12.066;2022-10-16T02:06:56;96533.31;;;15.42;74.69
21821;BME280;11073;48.586;12.066;2022-10-16T02:09:25;96525.44;;;15.46;74.73
21821;BME280;11073;48.586;12.066;2022-10-16T02:11:56;96530.63;;;15.48;74.66
21821;BME280;11073;48.586;12.066;2022-10-16T02:14:31;96534.19;;;15.43;74.40
21821;BME280;11073;48.586;12.066;2022-10-16T02:17:00;96536.59;;;15.39;74.74
21821;BME280;11073;48.586;12.066;2022-10-16T02:19:28;96542.06;;;15.39;74.75
21821;BME280;11073;48.586;12.066;2022-10-16T02:22:00;96542.59;;;15.41;74.78
21821;BME280;11073;48.586;12.066;2022-10-16T02:24:34;96549.16;;;15.40;74.92
21821;BME280;11073;48.586;12.066;2022-10-16T02:27:10;96545.31;;;15.41;74.70
21821;BME280;11073;48.586;12.066;2022-10-16T02:29:43;96534.97;;;15.38;75.00
21821;BME280;11073;48.586;12.066;2022-10-16T02:32:19;96530.09;;;15.51;75.05
21821;BME280;11073;48.586;12.066;2022-10-16T02:34:50;96533.66;;;15.56;74.97
21821;BME280;11073;48.586;12.066;2022-10-16T02:37:20;96529.56;;;15.54;74.84
21821;BME280;11073;48.586;12.066;2022-10-16T02:39:49;96529.84;;;15.52;74.78
21821;BME280;11073;48.586;12.066;2022-10-16T02:42:18;96548.66;;;15.54;74.98
21821;BME280;11073;48.586;12.066;2022-10-16T02:44:48;96547.28;;;15.56;74.94
21821;BME280;11073;48.586;12.066;2022-10-16T02:47:17;96559.03;;;15.57;75.00
21821;BME280;11073;48.586;12.066;2022-10-16T02:49:46;96551.97;;;15.61;75.00
21821;BME280;11073;48.586;12.066;2022-10-16T02:52:15;96542.97;;;15.60;75.02
21821;BME280;11073;48.586;12.066;2022-10-16T02:54:44;96534.78;;;15.60;74.90
21821;BME280;11073;48.586;12.066;2022-10-16T02:57:13;96537.78;;;15.59;74.97
21821;BME280;11073;48.586;12.066;2022-10-16T02:59:41;96535.31;;;15.57;75.00
21821;BME280;11073;48.586;12.066;2022-10-16T03:02:11;96533.66;;;15.56;75.00
21821;BME280;11073;48.586;12.066;2022-10-16T03:04:40;96539.94;;;15.52;74.96
21821;BME280;11073;48.586;12.066;2022-10-16T03:07:09;96533.06;;;15.49;75.10
21821;BME280;11073;48.586;12.066;2022-10-16T03:09:38;96530.91;;;15.46;75.10
21821;BME280;11073;48.586;12.066;2022-10-16T03:12:07;96536.06;;;15.42;75.22
21821;BME280;11073;48.586;12.066;2022-10-16T03:14:35;96539.31;;;15.39;75.12
21821;BME280;11073;48.586;12.066;2022-10-16T03:17:04;96534.69;;;15.40;75.21
21821;BME280;11073;48.586;12.066;2022-10-16T03:19:34;96532.75;;;15.35;75.18
21821;BME280;11073;48.586;12.066;2022-10-16T03:22:03;96536.03;;;15.32;75.11
21821;BME280;11073;48.586;12.066;2022-10-16T03:24:32;96543.13;;;15.28;75.22
21821;BME280;11073;48.586;12.066;2022-10-16T03:27:01;96542.53;;;15.26;75.22
21821;BME280;11073;48.586;12.066;2022-10-16T03:29:30;96545.84;;;15.28;75.46
21821;BME280;11073;48.586;12.066;2022-10-16T03:32:00;96555.91;;;15.28;75.30
21821;BME280;11073;48.586;12.066;2022-10-16T03:34:29;96543.88;;;15.18;75.16
21821;BME280;11073;48.586;12.066;2022-10-16T03:36:59;96539.81;;;15.21;75.32
21821;BME280;11073;48.586;12.066;2022-10-16T03:39:28;96541.97;;;15.19;75.16
21821;BME280;11073;48.586;12.066;2022-10-16T03:41:57;96547.13;;;15.15;75.14
21821;BME280;11073;48.586;12.066;2022-10-16T03:44:26;96548.47;;;15.08;75.30
21821;BME280;11073;48.586;12.066;2022-10-16T03:46:54;96557.13;;;15.00;75.42
21821;BME280;11073;48.586;12.066;2022-10-16T03:49:23;96560.91;;;14.94;75.69
21821;BME280;11073;48.586;12.066;2022-10-16T03:51:52;96561.19;;;14.92;75.90
21821;BME280;11073;48.586;12.066;2022-10-16T03:54:22;96558.97;;;14.89;75.89
21821;BME280;11073;48.586;12.066;2022-10-16T03:56:51;96556.50;;;14.87;75.87
21821;BME280;11073;48.586;12.066;2022-10-16T03:59:19;96555.69;;;14.87;75.89
21821;BME280;11073;48.586;12.066;2022-10-16T04:01:48;96553.78;;;14.87;75.97
21821;BME280;11073;48.586;12.066;2022-10-16T04:04:17;96545.88;;;14.86;76.11
21821;BME280;11073;48.586;12.066;2022-10-16T04:06:46;96559.50;;;14.86;76.17
21821;BME280;11073;48.586;12.066;2022-10-16T04:09:15;96559.78;;;14.89;76.25
21821;BME280;11073;48.586;12.066;2022-10-16T04:11:45;96558.47;;;14.92;76.00
21821;BME280;11073;48.586;12.066;2022-10-16T04:14:14;96560.38;;;14.97;76.18
21821;BME280;11073;48.586;12.066;2022-10-16T04:16:42;96570.19;;;14.93;75.95
21821;BME280;11073;48.586;12.066;2022-10-16T04:19:11;96567.69;;;14.91;75.86
21821;BME280;11073;48.586;12.066;2022-10-16T04:21:40;96572.31;;;14.90;75.63
21821;BME280;11073;48.586;12.066;2022-10-16T04:24:09;96572.59;;;14.89;75.80
21821;BME280;11073;48.586;12.066;2022-10-16T04:26:39;96582.94;;;14.87;75.94
21821;BME280;11073;48.586;12.066;2022-10-16T04:29:08;96583.22;;;14.85;75.83
21821;BME280;11073;48.586;12.066;2022-10-16T04:31:37;96579.66;;;14.85;75.94
21821;BME280;11073;48.586;12.066;2022-10-16T04:34:06;96584.84;;;14.86;76.08
21821;BME280;11073;48.586;12.066;2022-10-16T04:36:34;96573.13;;;14.86;76.21
21821;BME280;11073;48.586;12.066;2022-10-16T04:39:03;96578.81;;;14.84;76.21
21821;BME280;11073;48.586;12.066;2022-10-16T04:41:32;96578.03;;;14.89;76.29
21821;BME280;11073;48.586;12.066;2022-10-16T04:44:00;96583.22;;;14.90;76.23
21821;BME280;11073;48.586;12.066;2022-10-16T04:46:30;96578.03;;;14.89;76.22
21821;BME280;11073;48.586;12.066;2022-10-16T04:48:59;96578.81;;;14.84;76.33
21821;BME280;11073;48.586;12.066;2022-10-16T04:51:28;96586.75;;;14.86;76.38
21821;BME280;11073;48.586;12.066;2022-10-16T04:53:56;96576.69;;;14.86;76.53
21821;BME280;11073;48.586;12.066;2022-10-16T04:56:25;96576.69;;;14.86;76.44
21821;BME280;11073;48.586;12.066;2022-10-16T04:58:54;96558.41;;;14.87;76.67
21821;BME280;11073;48.586;12.066;2022-10-16T05:01:23;96567.41;;;14.87;76.63
21821;BME280;11073;48.586;12.066;2022-10-16T05:03:53;96565.78;;;14.86;76.64
21821;BME280;11073;48.586;12.066;2022-10-16T05:06:21;96563.06;;;14.86;76.63
21821;BME280;11073;48.586;12.066;2022-10-16T05:08:50;96558.16;;;14.88;76.62
21821;BME280;11073;48.586;12.066;2022-10-16T05:11:18;96564.69;;;14.87;76.43
21821;BME280;11073;48.586;12.066;2022-10-16T05:13:47;96568.16;;;14.78;76.42
21821;BME280;11073;48.586;12.066;2022-10-16T05:16:20;96573.03;;;14.76;76.70
21821;BME280;11073;48.586;12.066;2022-10-16T05:18:48;96575.50;;;14.77;76.63
21821;BME280;11073;48.586;12.066;2022-10-16T05:21:24;96590.47;;;14.75;76.59
21821;BME280;11073;48.586;12.066;2022-10-16T05:23:53;96586.13;;;14.74;76.59
21821;BME280;11073;48.586;12.066;2022-10-16T05:26:22;96582.56;;;14.73;76.54
21821;BME280;11073;48.586;12.066;2022-10-16T05:28:51;96575.50;;;14.72;76.57
21821;BME280;11073;48.586;12.066;2022-10-16T05:31:20;96569.50;;;14.75;76.73
21821;BME280;11073;48.586;12.066;2022-10-16T05:33:48;96569.50;;;14.75;76.76
21821;BME280;11073;48.586;12.066;2022-10-16T05:36:17;96571.72;;;14.78;76.73
21821;BME280;11073;48.586;12.066;2022-10-16T05:38:50;96579.56;;;14.75;76.65
21821;BME280;11073;48.586;12.066;2022-10-16T05:41:19;96592.38;;;14.74;76.87
21821;BME280;11073;48.586;12.066;2022-10-16T05:43:49;96585.31;;;14.73;76.56
21821;BME280;11073;48.586;12.066;2022-10-16T05:46:18;96587.50;;;14.76;76.49
21821;BME280;11073;48.586;12.066;2022-10-16T05:48:46;96592.38;;;14.74;76.40
21821;BME280;11073;48.586;12.066;2022-10-16T05:51:14;96582.53;;;14.68;76.24
21821;BME280;11073;48.586;12.066;2022-10-16T05:53:43;96590.69;;;14.68;76.33
21821;BME280;11073;48.586;12.066;2022-10-16T05:56:13;96576.00;;;14.69;76.32
21821;BME280;11073;48.586;12.066;2022-10-16T05:58:42;96588.53;;;14.70;76.41
21821;BME280;11073;48.586;12.066;2022-10-16T06:01:14;96588.53;;;14.70;76.57
21821;BME280;11073;48.586;12.066;2022-10-16T06:03:43;96589.88;;;14.68;76.56
21821;BME280;11073;48.586;12.066;2022-10-16T06:06:14;96597.78;;;14.69;76.59
21821;BME280;11073;48.586;12.066;2022-10-16T06:08:44;96592.88;;;14.66;76.80
21821;BME280;11073;48.586;12.066;2022-10-16T06:11:15;96606.00;;;14.74;76.55
21821;BME280;11073;48.586;12.066;2022-10-16T06:13:44;96606.00;;;14.74;76.46
21821;BME280;11073;48.586;12.066;2022-10-16T06:16:15;96609.28;;;14.76;76.54
21821;BME280;11073;48.586;12.066;2022-10-16T06:18:44;96597.78;;;14.69;76.46
21821;BME280;11073;48.586;12.066;2022-10-16T06:21:16;96615.00;;;14.75;76.21
21821;BME280;11073;48.586;12.066;2022-10-16T06:23:46;96606.81;;;14.75;76.30
21821;BME280;11073;48.586;12.066;2022-10-16T06:26:19;96626.69;;;14.70;76.20
21821;BME280;11073;48.586;12.066;2022-10-16T06:28:48;96621.28;;;14.75;76.48
21821;BME280;11073;48.586;12.066;2022-10-16T06:31:17;96638.19;;;14.77;76.62
21821;BME280;11073;48.586;12.066;2022-10-16T06:33:50;96637.13;;;14.83;76.81
21821;BME280;11073;48.586;12.066;2022-10-16T06:36:19;96631.69;;;14.83;76.77
21821;BME280;11073;48.586;12.066;2022-10-16T06:38:49;96639.91;;;14.88;76.76
21821;BME280;11073;48.586;12.066;2022-10-16T06:41:21;96641.28;;;14.91;76.85
21821;BME280;11073;48.586;12.066;2022-10-16T06:43:50;96644.53;;;14.88;76.74
21821;BME280;11073;48.586;12.066;2022-10-16T06:46:21;96652.16;;;14.86;76.66
21821;BME280;11073;48.586;12.066;2022-10-16T06:48:51;96651.59;;;14.84;76.79
21821;BME280;11073;48.586;12.066;2022-10-16T06:51:20;96660.59;;;14.84;76.79
21821;BME280;11073;48.586;12.066;2022-10-16T06:53:50;96658.09;;;14.78;76.52
21821;BME280;11073;48.586;12.066;2022-10-16T06:56:36;96660.59;;;14.84;76.66
21821;BME280;11073;48.586;12.066;2022-10-16T06:59:05;96670.97;;;14.87;76.58
21821;BME280;11073;48.586;12.066;2022-10-16T07:01:34;96678.41;;;14.92;76.57
21821;BME280;11073;48.586;12.066;2022-10-16T07:04:02;96675.69;;;14.97;76.53
21821;BME280;11073;48.586;12.066;2022-10-16T07:06:32;96673.00;;;15.02;76.41
21821;BME280;11073;48.586;12.066;2022-10-16T07:09:05;96673.28;;;15.06;76.61
21821;BME280;11073;48.586;12.066;2022-10-16T07:11:36;96688.59;;;15.07;76.38
21821;BME280;11073;48.586;12.066;2022-10-16T07:14:12;96688.88;;;15.10;76.21
21821;BME280;11073;48.586;12.066;2022-10-16T07:16:44;96692.97;;;15.13;76.22
21821;BME280;11073;48.586;12.066;2022-10-16T07:19:14;96700.38;;;15.17;76.08
21821;BME280;11073;48.586;12.066;2022-10-16T07:21:45;96700.22;;;15.29;76.20
21821;BME280;11073;48.586;12.066;2022-10-16T07:24:14;96699.78;;;15.48;75.93
21821;BME280;11073;48.586;12.066;2022-10-16T07:26:45;96705.34;;;15.63;75.65
21821;BME280;11073;48.586;12.066;2022-10-16T07:29:16;96703.00;;;15.82;75.62
21821;BME280;11073;48.586;12.066;2022-10-16T07:31:45;96707.44;;;15.98;75.59
21821;BME280;11073;48.586;12.066;2022-10-16T07:34:16;96712.72;;;16.20;75.30
21821;BME280;11073;48.586;12.066;2022-10-16T07:36:47;96713.25;;;16.22;74.85
21821;BME280;11073;48.586;12.066;2022-10-16T07:39:16;96717.09;;;16.21;74.91
21821;BME280;11073;48.586;12.066;2022-10-16T07:41:47;96711.38;;;16.27;74.88
21821;BME280;11073;48.586;12.066;2022-10-16T07:44:15;96715.75;;;16.28;74.75
21821;BME280;11073;48.586;12.066;2022-10-16T07:46:44;96723.19;;;16.48;74.65
21821;BME280;11073;48.586;12.066;2022-10-16T07:49:13;96728.44;;;16.60;74.40
21821;BME280;11073;48.586;12.066;2022-10-16T07:51:41;96728.72;;;16.69;74.26
21821;BME280;11073;48.586;12.066;2022-10-16T07:54:10;96728.75;;;16.74;73.95
21821;BME280;11073;48.586;12.066;2022-10-16T07:56:39;96739.44;;;16.80;74.12
21821;BME280;11073;48.586;12.066;2022-10-16T07:59:11;96747.66;;;16.91;73.75
21821;BME280;11073;48.586;12.066;2022-10-16T08:01:40;96743.53;;;16.93;73.59
21821;BME280;11073;48.586;12.066;2022-10-16T08:04:10;96746.28;;;17.03;73.39
21821;BME280;11073;48.586;12.066;2022-10-16T08:06:40;96746.00;;;17.15;73.12
21821;BME280;11073;48.586;12.066;2022-10-16T08:09:09;96745.75;;;17.32;72.98
21821;BME280;11073;48.586;12.066;2022-10-16T08:11:38;96744.63;;;17.38;72.77
21821;BME280;11073;48.586;12.066;2022-10-16T08:14:07;96748.47;;;17.42;72.33
21821;BME280;11073;48.586;12.066;2022-10-16T08:16:37;96753.94;;;17.42;72.14
21821;BME280;11073;48.586;12.066;2022-10-16T08:19:06;96755.88;;;17.36;71.78
21821;BME280;11073;48.586;12.066;2022-10-16T08:21:35;96761.59;;;17.50;72.15
21821;BME280;11073;48.586;12.066;2022-10-16T08:24:04;96759.97;;;17.80;71.66
21821;BME280;11073;48.586;12.066;2022-10-16T08:26:33;96759.34;;;18.08;71.14
21821;BME280;11073;48.586;12.066;2022-10-16T08:29:02;96758.75;;;18.27;70.77
21821;BME280;11073;48.586;12.066;2022-10-16T08:31:31;96767.97;;;18.46;70.28
21821;BME280;11073;48.586;12.066;2022-10-16T08:34:01;96769.28;;;18.54;69.61
21821;BME280;11073;48.586;12.066;2022-10-16T08:36:30;96765.13;;;18.77;68.73
21821;BME280;11073;48.586;12.066;2022-10-16T08:38:59;96768.81;;;19.01;68.56
21821;BME280;11073;48.586;12.066;2022-10-16T08:41:53;96758.50;;;19.22;67.67
21821;BME280;11073;48.586;12.066;2022-10-16T08:47:38;96767.19;;;19.68;66.52
21821;BME280;11073;48.586;12.066;2022-10-16T08:50:18;96781.25;;;19.91;65.94
21821;BME280;11073;48.586;12.066;2022-10-16T08:52:50;96775.84;;;19.86;65.13
21821;BME280;11073;48.586;12.066;2022-10-16T08:55:32;96792.53;;;20.18;64.61
21821;BME280;11073;48.586;12.066;2022-10-16T08:58:10;96787.63;;;20.39;64.43
21821;BME280;11073;48.586;12.066;2022-10-16T09:00:40;96784.97;;;20.58;63.55
21821;BME280;11073;48.586;12.066;2022-10-16T09:03:17;96789.50;;;20.68;63.07
21821;BME280;11073;48.586;12.066;2022-10-16T09:06:12;96785.63;;;20.69;62.72
21821;BME280;11073;48.586;12.066;2022-10-16T09:08:55;96784.91;;;20.82;62.28
21821;BME280;11073;48.586;12.066;2022-10-16T09:11:33;96797.75;;;20.68;61.71
21821;BME280;11073;48.586;12.066;2022-10-16T09:14:19;96788.28;;;20.79;61.96
21821;BME280;11073;48.586;12.066;2022-10-16T09:16:57;96784.41;;;20.99;61.81
21821;BME280;11073;48.586;12.066;2022-10-16T09:19:31;96785.75;;;21.20;61.62
21821;BME280;11073;48.586;12.066;2022-10-16T09:22:12;96791.56;;;21.37;60.55
21821;BME280;11073;48.586;12.066;2022-10-16T09:24:44;96789.16;;;21.50;60.49
21821;BME280;11073;48.586;12.066;2022-10-16T09:27:14;96776.13;;;21.55;59.80
21821;BME280;11073;48.586;12.066;2022-10-16T09:29:43;96781.06;;;21.72;59.70
21821;BME280;11073;48.586;12.066;2022-10-16T09:32:14;96783.16;;;21.80;59.37
21821;BME280;11073;48.586;12.066;2022-10-16T09:34:48;96791.97;;;21.96;59.00
21821;BME280;11073;48.586;12.066;2022-10-16T09:37:21;96782.63;;;22.11;58.64
21821;BME280;11073;48.586;12.066;2022-10-16T09:39:53;96803.69;;;22.34;58.25
21821;BME280;11073;48.586;12.066;2022-10-16T09:42:26;96795.94;;;22.50;58.09
21821;BME280;11073;48.586;12.066;2022-10-16T09:44:58;96799.19;;;22.66;57.20
21821;BME280;11073;48.586;12.066;2022-10-16T09:47:28;96806.16;;;22.77;56.98
21821;BME280;11073;48.586;12.066;2022-10-16T09:50:01;96805.03;;;22.92;56.91
21821;BME280;11073;48.586;12.066;2022-10-16T09:52:33;96794.97;;;23.09;56.64
21821;BME280;11073;48.586;12.066;2022-10-16T09:55:13;96801.19;;;23.15;56.23
21821;BME280;11073;48.586;12.066;2022-10-16T09:57:48;96801.97;;;23.29;55.73
21821;BME280;11073;48.586;12.066;2022-10-16T10:00:18;96807.81;;;23.28;55.21
21821;BME280;11073;48.586;12.066;2022-10-16T10:02:47;96813.63;;;23.40;55.13
21821;BME280;11073;48.586;12.066;2022-10-16T10:05:21;96819.00;;;23.45;54.76
21821;BME280;11073;48.586;12.066;2022-10-16T10:07:56;96825.88;;;23.48;54.55
21821;BME280;11073;48.586;12.066;2022-10-16T10:10:27;96829.81;;;23.69;54.34
21821;BME280;11073;48.586;12.066;2022-10-16T10:12:57;96834.63;;;23.86;53.86
21821;BME280;11073;48.586;12.066;2022-10-16T10:15:28;96824.69;;;24.07;53.38
21821;BME280;11073;48.586;12.066;2022-10-16T10:18:01;96822.66;;;24.21;53.29
21821;BME280;11073;48.586;12.066;2022-10-16T10:20:32;96822.59;;;24.35;52.92
21821;BME280;11073;48.586;12.066;2022-10-16T10:23:20;96832.00;;;24.65;52.59
21821;BME280;11073;48.586;12.066;2022-10-16T10:25:52;96830.91;;;24.84;52.17
21821;BME280;11073;48.586;12.066;2022-10-16T10:28:45;96828.00;;;24.80;51.67
21821;BME280;11073;48.586;12.066;2022-10-16T10:31:21;96822.00;;;24.87;51.41
21821;BME280;11073;48.586;12.066;2022-10-16T10:33:57;96819.81;;;25.15;51.19
21821;BME280;11073;48.586;12.066;2022-10-16T10:36:32;96820.31;;;25.34;50.81
21821;BME280;11073;48.586;12.066;2022-10-16T10:39:08;96822.59;;;25.49;50.47
21821;BME280;11073;48.586;12.066;2022-10-16T10:42:15;96817.22;;;25.70;50.08
21821;BME280;11073;48.586;12.066;2022-10-16T10:45:00;96820.16;;;25.91;49.93
21821;BME280;11073;48.586;12.066;2022-10-16T10:47:44;96820.28;;;26.12;49.46
21821;BME280;11073;48.586;12.066;2022-10-16T10:50:21;96821.59;;;26.23;49.35
21821;BME280;11073;48.586;12.066;2022-10-16T10:52:58;96812.41;;;26.31;48.90
21821;BME280;11073;48.586;12.066;2022-10-16T10:55:38;96810.47;;;26.41;48.43
21821;BME280;11073;48.586;12.066;2022-10-16T11:01:08;96812.00;;;26.67;47.27
21821;BME280;11073;48.586;12.066;2022-10-16T11:03:51;96816.03;;;26.70;47.29
21821;BME280;11073;48.586;12.066;2022-10-16T11:06:29;96818.34;;;26.68;46.79
21821;BME280;11073;48.586;12.066;2022-10-16T11:09:03;96799.22;;;26.75;46.48
21821;BME280;11073;48.586;12.066;2022-10-16T11:11:42;96800.41;;;26.65;45.93
21821;BME280;11073;48.586;12.066;2022-10-16T11:14:17;96802.03;;;26.96;45.68
21821;BME280;11073;48.586;12.066;2022-10-16T11:16:51;96805.69;;;27.17;45.04
21821;BME280;11073;48.586;12.066;2022-10-16T11:19:30;96795.59;;;27.13;44.91
21821;BME280;11073;48.586;12.066;2022-10-16T11:22:04;96806.16;;;27.19;44.41
21821;BME280;11073;48.586;12.066;2022-10-16T11:24:41;96809.34;;;27.51;43.53
21821;BME280;11073;48.586;12.066;2022-10-16T11:27:16;96809.19;;;27.77;43.25
21821;BME280;11073;48.586;12.066;2022-10-16T11:29:50;96806.97;;;28.03;43.18
21821;BME280;11073;48.586;12.066;2022-10-16T11:32:24;96811.06;;;28.18;42.60
21821;BME280;11073;48.586;12.066;2022-10-16T11:34:57;96814.50;;;28.36;42.39
21821;BME280;11073;48.586;12.066;2022-10-16T11:37:32;96819.03;;;28.53;42.12
21821;BME280;11073;48.586;12.066;2022-10-16T11:40:10;96815.94;;;28.67;41.36
21821;BME280;11073;48.586;12.066;2022-10-16T11:42:50;96818.03;;;28.82;41.03
21821;BME280;11073;48.586;12.066;2022-10-16T11:45:26;96828.06;;;28.95;41.09
21821;BME280;11073;48.586;12.066;2022-10-16T11:48:02;96831.78;;;28.99;40.82
21821;BME280;11073;48.586;12.066;2022-10-16T11:50:38;96837.09;;;29.04;40.10
21821;BME280;11073;48.586;12.066;2022-10-16T11:53:15;96835.13;;;29.17;39.86
21821;BME280;11073;48.586;12.066;2022-10-16T11:55:47;96835.34;;;29.24;39.34
21821;BME280;11073;48.586;12.066;2022-10-16T11:58:23;96841.50;;;29.30;39.36
21821;BME280;11073;48.586;12.066;2022-10-16T12:00:59;96841.41;;;29.26;38.88
21821;BME280;11073;48.586;12.066;2022-10-16T12:03:38;96820.94;;;29.34;38.56
21821;BME280;11073;48.586;12.066;2022-10-16T12:06:21;96829.50;;;29.54;38.42
21821;BME280;11073;48.586;12.066;2022-10-16T12:08:52;96821.97;;;29.54;38.27
21821;BME280;11073;48.586;12.066;2022-10-16T12:11:30;96812.44;;;29.55;38.57
21821;BME280;11073;48.586;12.066;2022-10-16T12:17:36;96809.38;;;30.01;37.91
21821;BME280;11073;48.586;12.066;2022-10-16T12:20:24;96808.72;;;30.19;37.76
21821;BME280;11073;48.586;12.066;2022-10-16T12:22:55;96813.00;;;30.45;37.57
21821;BME280;11073;48.586;12.066;2022-10-16T12:25:28;96818.94;;;30.28;37.30
21821;BME280;11073;48.586;12.066;2022-10-16T12:28:21;96804.00;;;29.80;37.18
21821;BME280;11073;48.586;12.066;2022-10-16T12:30:55;96799.75;;;29.46;37.51
21821;BME280;11073;48.586;12.066;2022-10-16T12:33:28;96807.59;;;29.03;37.48
21821;BME280;11073;48.586;12.066;2022-10-16T12:35:59;96810.50;;;28.70;37.76
21821;BME280;11073;48.586;12.066;2022-10-16T12:38:33;96813.16;;;28.54;38.63
21821;BME280;11073;48.586;12.066;2022-10-16T12:41:07;96805.03;;;28.62;38.43
21821;BME280;11073;48.586;12.066;2022-10-16T12:43:39;96811.53;;;28.66;38.91
21821;BME280;11073;48.586;12.066;2022-10-16T12:46:23;96805.50;;;28.64;38.82
21821;BME280;11073;48.586;12.066;2022-10-16T12:49:06;96820.81;;;28.82;38.52
21821;BME280;11073;48.586;12.066;2022-10-16T12:51:36;96809.22;;;28.80;38.59
21821;BME280;11073;48.586;12.066;2022-10-16T12:54:13;96810.84;;;28.69;38.50
21821;BME280;11073;48.586;12.066;2022-10-16T12:56:53;96802.56;;;28.36;38.60
21821;BME280;11073;48.586;12.066;2022-10-16T12:59:33;96810.59;;;28.16;38.84
21821;BME280;11073;48.586;12.066;2022-10-16T13:02:17;96803.94;;;27.96;39.34
21821;BME280;11073;48.586;12.066;2022-10-16T13:05:02;96805.25;;;27.78;39.12
21821;BME280;11073;48.586;12.066;2022-10-16T13:07:48;96805.66;;;27.68;39.43
21821;BME280;11073;48.586;12.066;2022-10-16T13:10:25;96805.84;;;27.84;39.82
21821;BME280;11073;48.586;12.066;2022-10-16T13:13:13;96807.28;;;27.90;40.27
21821;BME280;11073;48.586;12.066;2022-10-16T13:15:54;96809.72;;;27.91;39.90
21821;BME280;11073;48.586;12.066;2022-10-16T13:18:30;96802.03;;;27.88;40.28
21821;BME280;11073;48.586;12.066;2022-10-16T13:21:16;96809.91;;;27.86;40.12
21821;BME280;11073;48.586;12.066;2022-10-16T13:23:53;96807.00;;;27.83;40.04
21821;BME280;11073;48.586;12.066;2022-10-16T13:26:33;96815.81;;;27.64;39.80
21821;BME280;11073;48.586;12.066;2022-10-16T13:29:04;96807.88;;;27.33;39.86